TOF weather

Bogashevo Airport
Tomsk, Tomsk Oblast, Russia

Public forecast

Using degrees Celsius for public forecast. Weather courtesy of forecast.io.

METAR (pilot weather report)

Retrieved 2019/07/22 10:30 UTC (22 minutes ago):

UNTT 221030Z 02002MPS 330V040 6000 SCT029 17/10 Q1004 R21/090060 NOSIG RMK QFE738

TAF (pilot weather forecast)

Closest forecast is Kemerovo Airport, 73.2 nm (135.6 km) SSE. Retrieved 2019/07/22 09:21 UTC (2 hours ago):

TAF UNEE 220800Z 2209/2309 30003MPS 5000 FU BKN020 TEMPO 2209/2215 3100 FU SCT011 BECMG 2215/2217 3100 BR BKN011 TEMPO 2218/2306 0300 FG VV001